createdAt,value
2023-05-05T00:01:22.064Z,5.81
2023-05-05T00:06:25.554Z,5.75
2023-05-05T00:11:28.730Z,5.71
2023-05-05T00:16:32.567Z,5.67
2023-05-05T00:21:36.263Z,5.59
2023-05-05T00:26:39.814Z,5.51
2023-05-05T00:31:43.360Z,5.90
2023-05-05T00:36:47.393Z,5.93
2023-05-05T00:41:51.099Z,6.16
2023-05-05T00:46:54.256Z,6.32
2023-05-05T00:51:58.721Z,6.21
2023-05-05T00:57:05.091Z,6.26
2023-05-05T01:02:09.859Z,6.14
2023-05-05T01:07:35.347Z,6.23
2023-05-05T01:12:54.447Z,6.07
2023-05-05T01:18:07.172Z,5.96
2023-05-05T01:23:19.508Z,5.81
2023-05-05T01:28:55.552Z,5.75
2023-05-05T01:34:06.646Z,5.60
2023-05-05T01:39:16.490Z,5.59
2023-05-05T01:44:20.735Z,5.63
2023-05-05T01:49:25.124Z,5.64
2023-05-05T01:54:30.124Z,5.57
2023-05-05T01:59:35.418Z,5.57
2023-05-05T02:04:42.851Z,5.68
2023-05-05T02:09:47.416Z,5.69
2023-05-05T02:14:53.318Z,5.53
2023-05-05T02:19:59.226Z,5.52
2023-05-05T02:25:02.596Z,5.45
2023-05-05T02:30:11.311Z,5.42
2023-05-05T02:35:18.584Z,5.29
2023-05-05T02:40:27.150Z,5.37
2023-05-05T02:45:32.046Z,5.27
2023-05-05T02:50:36.578Z,5.29
2023-05-05T02:55:57.090Z,5.25
2023-05-05T03:01:17.270Z,5.25
2023-05-05T03:06:23.292Z,5.19
2023-05-05T03:11:30.039Z,5.10
2023-05-05T03:16:37.083Z,5.07
2023-05-05T03:21:44.615Z,5.17
2023-05-05T03:26:49.995Z,5.06
2023-05-05T03:31:57.302Z,5.02
2023-05-05T03:37:01.476Z,4.98
2023-05-05T03:42:05.349Z,4.95
2023-05-05T03:47:11.690Z,4.95
2023-05-05T03:52:17.282Z,4.89
2023-05-05T03:57:21.957Z,4.89
2023-05-05T04:02:26.717Z,4.85
2023-05-05T04:07:31.088Z,4.88
2023-05-05T04:12:44.369Z,4.95
2023-05-05T04:17:53.720Z,4.98
2023-05-05T04:22:57.797Z,5.08
2023-05-05T04:28:01.829Z,5.10
2023-05-05T04:33:05.631Z,5.25
2023-05-05T04:38:10.350Z,5.43
2023-05-05T04:43:13.988Z,5.56
2023-05-05T04:48:18.085Z,5.84
2023-05-05T04:53:21.877Z,6.08
2023-05-05T04:58:26.086Z,6.27
2023-05-05T05:03:29.574Z,6.54
2023-05-05T05:08:32.780Z,6.89
2023-05-05T05:13:37.133Z,7.27
2023-05-05T05:18:41.657Z,7.66
2023-05-05T05:23:45.315Z,8.01
2023-05-05T05:28:49.405Z,8.45
2023-05-05T05:33:52.904Z,8.79
2023-05-05T05:38:56.714Z,9.35
2023-05-05T05:44:00.754Z,9.78
2023-05-05T05:49:05.280Z,9.99
2023-05-05T05:54:08.826Z,10.37
2023-05-05T05:59:13.010Z,10.96
2023-05-05T06:04:18.429Z,11.32
2023-05-05T06:09:23.147Z,11.52
2023-05-05T06:14:27.099Z,11.91
2023-05-05T06:19:30.858Z,13.90
2023-05-05T06:24:34.403Z,17.81
2023-05-05T06:29:39.007Z,18.50
2023-05-05T06:34:44.983Z,18.21
2023-05-05T06:39:48.301Z,18.77
2023-05-05T06:44:51.955Z,19.38
2023-05-05T06:49:55.832Z,19.11
2023-05-05T06:55:00.013Z,19.62
2023-05-05T07:00:06.182Z,19.55
2023-05-05T07:05:09.775Z,20.35
2023-05-05T07:10:13.460Z,21.14
2023-05-05T07:15:27.556Z,21.96
2023-05-05T07:20:33.371Z,20.88
2023-05-05T07:25:37.733Z,21.12
2023-05-05T07:30:41.024Z,21.36
2023-05-05T07:35:44.180Z,22.06
2023-05-05T07:40:47.780Z,20.31
2023-05-05T07:45:51.607Z,20.50
2023-05-05T07:50:55.277Z,21.23
2023-05-05T07:55:58.870Z,20.92
2023-05-05T08:01:03.100Z,20.65
2023-05-05T08:06:12.385Z,20.82
2023-05-05T08:11:16.872Z,21.15
2023-05-05T08:16:20.595Z,20.99
2023-05-05T08:21:24.247Z,21.20
2023-05-05T08:26:27.903Z,22.31
2023-05-05T08:31:37.486Z,22.01
2023-05-05T08:36:41.563Z,21.34
2023-05-05T08:41:44.814Z,20.93
2023-05-05T08:46:50.669Z,21.31
2023-05-05T08:51:55.346Z,21.52
2023-05-05T08:57:02.223Z,21.39
2023-05-05T09:02:07.585Z,22.16
2023-05-05T09:07:10.802Z,23.50
2023-05-05T09:12:16.246Z,21.86
2023-05-05T09:17:25.139Z,21.71
2023-05-05T09:22:41.527Z,22.01
2023-05-05T09:27:48.242Z,22.85
2023-05-05T09:32:55.883Z,22.85
2023-05-05T09:38:12.601Z,23.98
2023-05-05T09:43:17.991Z,23.74
2023-05-05T09:48:29.534Z,24.13
2023-05-05T09:53:43.227Z,24.28
2023-05-05T09:58:46.753Z,23.11
2023-05-05T10:03:53.048Z,23.17
2023-05-05T10:09:02.834Z,21.47
2023-05-05T10:14:08.696Z,20.77
2023-05-05T10:19:14.895Z,20.88
2023-05-05T10:24:51.132Z,20.14
2023-05-05T10:30:09.066Z,19.74
2023-05-05T10:35:17.982Z,19.37
2023-05-05T10:40:23.024Z,18.04
2023-05-05T10:45:27.743Z,17.90
2023-05-05T10:50:36.898Z,17.79
2023-05-05T10:55:48.827Z,17.75
2023-05-05T11:00:52.153Z,19.02
2023-05-05T11:06:05.208Z,21.46
2023-05-05T11:11:12.878Z,21.24
2023-05-05T11:16:46.049Z,20.88
2023-05-05T11:22:02.595Z,20.14
2023-05-05T11:27:07.300Z,19.83
2023-05-05T11:32:14.937Z,20.08
2023-05-05T11:37:18.476Z,19.95
2023-05-05T11:42:25.080Z,20.71
2023-05-05T11:47:30.141Z,21.24
2023-05-05T11:52:34.811Z,21.77
2023-05-05T11:57:38.705Z,21.91
2023-05-05T12:02:42.589Z,22.49
2023-05-05T12:07:45.886Z,21.95
2023-05-05T12:12:50.117Z,21.80
2023-05-05T12:17:53.579Z,21.31
2023-05-05T12:23:02.519Z,20.58
2023-05-05T12:28:07.908Z,20.99
2023-05-05T12:33:12.080Z,21.26
2023-05-05T12:38:16.723Z,22.52
2023-05-05T12:43:34.495Z,22.71
2023-05-05T12:48:40.026Z,21.55
2023-05-05T12:53:43.981Z,21.71
2023-05-05T12:58:52.380Z,20.54
2023-05-05T13:04:05.850Z,19.72
2023-05-05T13:09:12.563Z,20.00
2023-05-05T13:14:16.716Z,20.04
2023-05-05T13:19:19.969Z,19.52
2023-05-05T13:24:38.189Z,20.64
2023-05-05T13:29:49.282Z,21.55
2023-05-05T13:34:52.640Z,22.76
2023-05-05T13:39:59.774Z,23.09
2023-05-05T13:45:03.373Z,22.25
2023-05-05T13:50:08.180Z,22.40
2023-05-05T13:55:11.383Z,22.97
2023-05-05T14:00:15.330Z,22.12
2023-05-05T14:05:20.356Z,22.68
2023-05-05T14:10:23.489Z,23.42
2023-05-05T14:15:27.115Z,22.82
2023-05-05T14:20:31.370Z,21.77
2023-05-05T14:25:35.228Z,21.78
2023-05-05T14:30:38.702Z,21.37
2023-05-05T14:35:41.919Z,21.68
2023-05-05T14:40:45.640Z,22.46
2023-05-05T14:45:49.804Z,22.37
2023-05-05T14:50:53.362Z,22.40
2023-05-05T14:55:57.226Z,22.26
2023-05-05T15:01:00.794Z,22.04
2023-05-05T15:06:05.282Z,21.94
2023-05-05T15:11:08.439Z,20.84
2023-05-05T15:16:11.668Z,20.80
2023-05-05T15:21:14.772Z,21.51
2023-05-05T15:26:17.805Z,21.87
2023-05-05T15:31:20.917Z,21.49
2023-05-05T15:36:24.893Z,20.38
2023-05-05T15:41:29.829Z,19.41
2023-05-05T15:46:35.700Z,18.86
2023-05-05T15:51:38.874Z,18.44
2023-05-05T15:56:41.881Z,18.15
2023-05-05T16:01:44.974Z,18.24
2023-05-05T16:06:47.990Z,18.13
2023-05-05T16:11:53.970Z,17.68
2023-05-05T16:16:57.163Z,17.87
2023-05-05T16:22:00.553Z,17.52
2023-05-05T16:27:04.057Z,17.30
2023-05-05T16:32:07.229Z,17.20
2023-05-05T16:37:10.209Z,17.23
2023-05-05T16:42:13.668Z,16.83
2023-05-05T16:47:16.674Z,16.79
2023-05-05T16:52:19.718Z,16.85
2023-05-05T16:57:23.497Z,16.79
2023-05-05T17:02:26.738Z,16.59
2023-05-05T17:07:29.955Z,16.52
2023-05-05T17:12:35.087Z,16.31
2023-05-05T17:17:38.790Z,16.20
2023-05-05T17:22:42.976Z,15.73
2023-05-05T17:27:46.068Z,15.50
2023-05-05T17:32:49.301Z,15.32
2023-05-05T17:37:52.356Z,15.13
2023-05-05T17:42:55.452Z,14.86
2023-05-05T17:47:58.720Z,14.70
2023-05-05T17:53:01.992Z,14.64
2023-05-05T17:58:05.177Z,14.58
2023-05-05T18:03:08.382Z,14.50
2023-05-05T18:08:11.487Z,14.40
2023-05-05T18:13:14.584Z,14.18
2023-05-05T18:18:17.905Z,13.94
2023-05-05T18:23:21.383Z,13.68
2023-05-05T18:28:25.361Z,13.49
2023-05-05T18:33:29.619Z,13.31
2023-05-05T18:38:34.180Z,13.06
2023-05-05T18:43:38.074Z,12.95
2023-05-05T18:48:42.080Z,12.73
2023-05-05T18:53:45.680Z,12.43
2023-05-05T18:58:49.389Z,12.42
2023-05-05T19:03:52.575Z,12.33
2023-05-05T19:08:57.286Z,12.05
2023-05-05T19:14:01.594Z,11.99
2023-05-05T19:19:05.448Z,11.92
2023-05-05T19:24:09.973Z,11.90
2023-05-05T19:29:13.685Z,11.80
2023-05-05T19:34:17.190Z,11.63
2023-05-05T19:39:20.880Z,11.59
2023-05-05T19:44:25.036Z,11.58
2023-05-05T19:49:28.661Z,11.53
2023-05-05T19:54:32.032Z,11.45
2023-05-05T19:59:35.705Z,11.35
2023-05-05T20:04:39.209Z,11.18
2023-05-05T20:09:43.291Z,11.11
2023-05-05T20:14:47.303Z,11.15
2023-05-05T20:19:50.916Z,11.11
2023-05-05T20:24:55.198Z,10.85
2023-05-05T20:29:59.184Z,10.78
2023-05-05T20:35:03.292Z,10.81
2023-05-05T20:40:08.098Z,10.67
2023-05-05T20:45:12.791Z,10.51
2023-05-05T20:50:20.626Z,10.29
2023-05-05T20:55:24.175Z,10.09
2023-05-05T21:00:27.737Z,9.86
2023-05-05T21:05:31.907Z,9.86
2023-05-05T21:10:35.064Z,9.81
2023-05-05T21:15:38.801Z,9.56
2023-05-05T21:20:42.782Z,9.43
2023-05-05T21:25:46.102Z,9.38
2023-05-05T21:35:59.804Z,9.00
2023-05-05T21:41:04.267Z,9.09
2023-05-05T21:46:08.523Z,9.17
2023-05-05T21:51:12.423Z,9.14
2023-05-05T21:56:15.977Z,9.00
2023-05-05T22:01:19.117Z,8.99
2023-05-05T22:06:22.924Z,8.93
2023-05-05T22:11:26.553Z,8.99
2023-05-05T22:16:30.478Z,8.75
2023-05-05T22:21:34.023Z,8.58
2023-05-05T22:26:43.321Z,8.54
2023-05-05T22:31:46.614Z,8.44
2023-05-05T22:36:50.720Z,8.25
2023-05-05T22:41:54.777Z,8.20
2023-05-05T22:46:58.931Z,8.22
2023-05-05T22:52:02.992Z,8.02
2023-05-05T22:57:06.108Z,7.94
2023-05-05T23:02:09.765Z,7.84
2023-05-05T23:07:14.405Z,7.80
2023-05-05T23:12:17.842Z,7.67
2023-05-05T23:17:21.514Z,7.73
2023-05-05T23:22:25.153Z,7.68
2023-05-05T23:27:28.683Z,7.65
2023-05-05T23:32:32.265Z,7.55
2023-05-05T23:37:35.573Z,7.38
2023-05-05T23:42:39.190Z,7.73
2023-05-05T23:47:42.727Z,7.64
2023-05-05T23:52:46.640Z,7.54
2023-05-05T23:57:52.485Z,7.49
